createdAt,value
2023-02-02T02:05:56.216Z,27.75
2023-02-02T02:08:29.986Z,29.00
2023-02-02T02:11:00.485Z,30.00
2023-02-02T02:13:33.956Z,27.25
2023-02-02T02:16:07.311Z,23.25
2023-02-02T02:18:52.477Z,26.00
2023-02-02T02:21:42.620Z,28.50
2023-02-02T02:24:37.130Z,23.50
2023-02-02T02:27:18.993Z,23.00
2023-02-02T02:29:52.224Z,23.00
2023-02-02T02:35:38.169Z,22.25
2023-02-02T02:38:18.664Z,28.00
2023-02-02T02:40:51.866Z,26.50
2023-02-02T02:43:30.737Z,24.00
2023-02-02T02:46:28.915Z,30.75
2023-02-02T02:49:01.002Z,26.50
2023-02-02T02:51:51.973Z,25.25
2023-02-02T02:54:31.238Z,27.00
2023-02-02T02:57:27.208Z,23.67
2023-02-02T03:00:34.180Z,27.75
2023-02-02T03:03:33.425Z,20.50
2023-02-02T03:06:06.925Z,17.50
2023-02-02T03:08:42.952Z,23.00
2023-02-02T03:11:15.883Z,22.00
2023-02-02T03:13:46.896Z,22.00
2023-02-02T03:16:18.128Z,24.25
2023-02-02T03:18:48.562Z,15.25
2023-02-02T03:21:18.859Z,18.00
2023-02-02T03:23:49.184Z,25.25
2023-02-02T03:26:19.507Z,26.25
2023-02-02T03:28:51.422Z,15.00
2023-02-02T03:31:22.053Z,21.25
2023-02-02T03:33:52.634Z,19.00
2023-02-02T03:36:23.173Z,22.33
2023-02-02T03:38:54.045Z,25.25
2023-02-02T03:41:24.390Z,22.75
2023-02-02T03:43:54.704Z,23.50
2023-02-02T03:46:25.181Z,21.75
2023-02-02T03:48:55.382Z,22.75
2023-02-02T03:51:26.062Z,22.00
2023-02-02T03:53:56.749Z,22.75
2023-02-02T03:56:26.999Z,22.25
2023-02-02T03:58:57.298Z,23.00
2023-02-02T04:01:29.706Z,22.75
2023-02-02T04:04:00.676Z,23.50
2023-02-02T04:06:31.580Z,16.75
2023-02-02T04:09:03.152Z,22.00
2023-02-02T04:11:33.681Z,20.25
2023-02-02T04:14:05.130Z,22.50
2023-02-02T04:16:35.686Z,23.50
2023-02-02T04:19:06.031Z,12.25
2023-02-02T04:21:37.749Z,14.50
2023-02-02T04:24:09.881Z,20.00
2023-02-02T04:26:42.035Z,23.50
2023-02-02T04:29:12.380Z,22.00
2023-02-02T04:31:43.096Z,19.25
2023-02-02T04:34:13.621Z,27.50
2023-02-02T04:36:43.939Z,21.50
2023-02-02T04:39:14.380Z,18.50
2023-02-02T04:41:45.306Z,18.25
2023-02-02T04:44:16.854Z,16.50
2023-02-02T04:46:47.903Z,15.25
2023-02-02T04:49:18.595Z,16.75
2023-02-02T04:51:49.006Z,20.75
2023-02-02T04:54:20.034Z,9.00
2023-02-02T04:56:50.491Z,14.75
2023-02-02T04:59:21.271Z,18.50
2023-02-02T05:01:51.662Z,17.25
2023-02-02T05:04:22.032Z,16.25
2023-02-02T05:06:52.417Z,18.50
2023-02-02T05:09:22.844Z,22.50
2023-02-02T05:11:54.661Z,20.25
2023-02-02T05:14:25.701Z,17.75
2023-02-02T05:16:56.498Z,21.50
2023-02-02T05:19:26.991Z,19.25
2023-02-02T05:21:57.327Z,19.25
2023-02-02T05:24:27.715Z,14.00
2023-02-02T05:26:58.410Z,23.00
2023-02-02T05:29:29.968Z,21.75
2023-02-02T05:32:00.692Z,29.50
2023-02-02T05:34:31.256Z,22.25
2023-02-02T05:37:01.608Z,20.00
2023-02-02T05:39:32.164Z,22.00
2023-02-02T05:42:02.580Z,89.00
2023-02-02T05:44:33.056Z,24.50
2023-02-02T05:47:03.557Z,27.50
2023-02-02T05:49:34.774Z,19.75
2023-02-02T05:52:06.060Z,19.25
2023-02-02T05:54:37.400Z,22.25
2023-02-02T05:57:07.716Z,25.00
2023-02-02T05:59:38.631Z,23.00
2023-02-02T06:02:09.185Z,20.50
2023-02-02T06:04:39.587Z,20.50
2023-02-02T06:07:10.636Z,23.75
2023-02-02T06:09:40.969Z,27.00
2023-02-02T06:12:11.289Z,22.25
2023-02-02T06:14:41.812Z,23.00
2023-02-02T06:17:13.787Z,20.00
2023-02-02T06:19:46.181Z,30.50
2023-02-02T06:22:16.575Z,29.00
2023-02-02T06:24:47.862Z,30.25
2023-02-02T06:27:18.244Z,23.00
2023-02-02T06:29:50.803Z,21.50
2023-02-02T06:32:21.423Z,25.00
2023-02-02T06:34:51.730Z,23.00
2023-02-02T06:37:22.162Z,28.25
2023-02-02T06:39:52.800Z,23.00
2023-02-02T06:42:23.637Z,16.00
2023-02-02T06:44:55.670Z,29.00
2023-02-02T06:47:27.068Z,25.50
2023-02-02T06:49:57.483Z,19.50
2023-02-02T06:52:32.192Z,23.25
2023-02-02T06:55:02.944Z,15.75
2023-02-02T06:57:35.019Z,22.25
2023-02-02T07:00:07.200Z,21.25
2023-02-02T07:02:38.549Z,19.75
2023-02-02T07:05:09.217Z,17.75
2023-02-02T07:07:40.260Z,24.00
2023-02-02T07:11:12.090Z,19.00
2023-02-02T07:12:49.506Z,21.75
2023-02-02T10:32:09.060Z,18.25
2023-02-02T10:35:12.618Z,21.00
2023-02-02T10:37:55.595Z,9.50
2023-02-02T10:40:34.626Z,21.75
2023-02-02T10:43:26.729Z,23.75
2023-02-02T10:46:00.579Z,16.50
2023-02-02T10:48:45.773Z,16.25
2023-02-02T10:54:11.647Z,13.50
2023-02-02T10:56:45.364Z,17.00
2023-02-02T10:59:21.590Z,18.50
2023-02-02T11:01:52.156Z,21.50
2023-02-02T11:04:23.897Z,20.00
2023-02-02T11:06:55.372Z,19.50
2023-02-02T11:09:28.609Z,17.50
2023-02-02T11:12:12.952Z,20.50
2023-02-02T11:15:05.523Z,16.25
2023-02-02T11:17:39.378Z,15.50
2023-02-02T11:20:26.244Z,15.75
2023-02-02T11:23:06.464Z,16.00
2023-02-02T11:25:42.160Z,18.50
2023-02-02T11:28:26.056Z,20.75
2023-02-02T11:30:58.179Z,38.00
2023-02-02T11:33:37.045Z,12.00
2023-02-02T11:36:27.802Z,19.50
2023-02-02T11:39:19.543Z,19.50
2023-02-02T11:41:53.378Z,53.25
2023-02-02T11:44:45.030Z,65.50
2023-02-02T11:47:31.349Z,33.75
2023-02-02T11:50:03.741Z,24.00
2023-02-02T11:52:35.380Z,13.25
2023-02-02T11:55:11.596Z,14.25
2023-02-02T11:57:45.957Z,21.00
2023-02-02T12:00:22.666Z,22.50
2023-02-02T12:02:53.765Z,12.00
2023-02-02T12:05:27.034Z,14.50
2023-02-02T12:08:00.032Z,15.50
2023-02-02T12:10:52.148Z,11.00
2023-02-02T12:13:31.407Z,12.75
2023-02-02T12:16:09.164Z,9.75
2023-02-02T12:18:48.665Z,13.00
2023-02-02T12:21:49.048Z,11.00
2023-02-02T12:24:37.414Z,10.50
2023-02-02T12:27:40.525Z,17.00
2023-02-02T12:30:19.131Z,16.00
2023-02-02T12:32:52.832Z,14.50
2023-02-02T12:35:45.653Z,12.50
2023-02-02T12:38:35.151Z,17.00
2023-02-02T12:41:32.528Z,13.00
2023-02-02T12:44:28.381Z,14.00
2023-02-02T12:47:02.129Z,15.75
2023-02-02T12:50:08.892Z,13.00
2023-02-02T12:56:16.542Z,19.25
2023-02-02T12:58:50.687Z,20.50
2023-02-02T13:01:59.500Z,24.25
2023-02-02T13:04:48.913Z,24.00
2023-02-02T13:07:34.244Z,16.00
2023-02-02T13:10:14.607Z,23.00
2023-02-02T13:15:45.095Z,23.75
2023-02-02T13:18:21.065Z,16.00
2023-02-02T13:21:02.675Z,20.50
2023-02-02T13:23:44.177Z,17.75
2023-02-02T13:26:17.489Z,22.00
2023-02-02T13:29:08.485Z,17.50
2023-02-02T13:31:57.374Z,19.75
2023-02-02T13:34:33.165Z,20.50
2023-02-02T13:37:06.996Z,16.75
2023-02-02T13:39:41.672Z,20.25
2023-02-02T13:42:17.683Z,57.00
2023-02-02T13:44:59.346Z,12.00
2023-02-02T13:47:38.458Z,20.75
2023-02-02T13:50:11.832Z,20.25
2023-02-02T13:52:55.732Z,22.00
2023-02-02T13:55:29.118Z,15.75
2023-02-02T13:58:32.810Z,17.25
2023-02-02T14:01:08.740Z,22.25
2023-02-02T14:03:47.049Z,27.50
2023-02-02T14:06:20.492Z,26.75
2023-02-02T14:12:55.265Z,20.00
2023-02-02T14:18:52.373Z,22.50
2023-02-02T14:21:55.711Z,20.75
2023-02-02T14:24:31.630Z,21.25
2023-02-02T14:27:04.665Z,25.75
2023-02-02T14:29:39.322Z,21.50
2023-02-02T14:32:51.949Z,43.25
2023-02-02T14:35:28.324Z,64.50
2023-02-02T14:38:04.498Z,41.50
2023-02-02T14:40:49.876Z,41.50
2023-02-02T14:43:38.443Z,35.75
2023-02-02T14:46:14.736Z,33.00
2023-02-02T14:48:51.094Z,47.00
2023-02-02T14:51:25.918Z,54.75
2023-02-02T14:54:01.066Z,63.25
2023-02-02T14:59:36.218Z,55.00
2023-02-02T15:02:19.056Z,50.75
2023-02-02T15:04:50.499Z,52.00
2023-02-02T15:07:26.369Z,59.25
2023-02-02T15:09:57.286Z,60.25
2023-02-02T15:12:39.265Z,62.50
2023-02-02T15:15:25.261Z,45.25
2023-02-02T15:18:04.794Z,49.00
2023-02-02T15:20:38.546Z,37.50
2023-02-02T15:23:20.646Z,45.25
2023-02-02T15:25:54.304Z,57.25
2023-02-02T15:29:00.484Z,51.00
2023-02-02T15:31:39.678Z,38.75
2023-02-02T15:34:18.628Z,45.25
2023-02-02T15:36:51.989Z,44.75
2023-02-02T15:39:34.321Z,44.50
2023-02-02T15:42:07.693Z,49.50
2023-02-02T15:44:38.488Z,49.75
2023-02-02T15:49:52.445Z,53.50
2023-02-02T15:52:31.791Z,55.00
2023-02-02T15:55:03.262Z,45.75
2023-02-02T15:57:37.369Z,52.75
2023-02-02T16:00:27.560Z,51.75
2023-02-02T16:03:19.012Z,46.00
2023-02-02T16:05:52.347Z,38.00
2023-02-02T16:08:28.357Z,34.75
2023-02-02T16:14:06.537Z,33.50
2023-02-02T16:16:39.768Z,37.00
2023-02-02T16:19:16.386Z,29.75
2023-02-02T16:21:56.027Z,35.00
2023-02-02T16:25:43.443Z,35.50
2023-02-02T16:27:30.926Z,30.50
2023-02-02T16:33:40.165Z,31.00
2023-02-02T16:36:27.235Z,29.00
2023-02-02T16:38:59.303Z,24.25
2023-02-02T16:41:32.063Z,29.50
2023-02-02T16:44:24.983Z,26.75
2023-02-02T16:46:55.364Z,25.00
2023-02-02T16:49:27.237Z,27.50
2023-02-02T16:52:10.367Z,35.25
2023-02-02T16:54:44.008Z,34.00
2023-02-02T16:57:17.359Z,33.75
2023-02-02T16:59:56.554Z,24.50
2023-02-02T17:02:36.288Z,31.50
2023-02-02T17:05:09.505Z,28.25
2023-02-02T17:07:42.811Z,31.00
2023-02-02T17:10:23.096Z,29.00
2023-02-02T17:12:55.167Z,26.50
2023-02-02T17:15:35.557Z,20.75
2023-02-02T17:18:10.469Z,29.00
2023-02-02T17:20:42.599Z,29.75
2023-02-02T17:23:20.793Z,28.75
2023-02-02T17:25:54.954Z,24.00
2023-02-02T17:28:27.339Z,31.50
2023-02-02T17:31:09.771Z,31.00
2023-02-02T17:33:41.268Z,28.75
2023-02-02T17:36:13.581Z,38.50
2023-02-02T17:38:47.317Z,49.50
2023-02-02T17:41:17.753Z,70.50
2023-02-02T17:44:32.325Z,45.00
2023-02-02T17:46:58.824Z,47.50
2023-02-02T17:49:37.318Z,41.00
2023-02-02T17:55:20.749Z,40.00
2023-02-02T17:57:52.555Z,39.50
2023-02-02T18:00:30.978Z,39.50
2023-02-02T18:03:02.210Z,25.00
2023-02-02T18:05:36.668Z,32.25
2023-02-02T18:08:07.600Z,27.25
2023-02-02T18:10:37.989Z,25.75
2023-02-02T18:13:10.240Z,29.00
2023-02-02T18:15:40.592Z,19.00
2023-02-02T18:18:11.620Z,26.75
2023-02-02T18:20:44.334Z,23.25
2023-02-02T18:23:16.166Z,21.50
2023-02-02T18:25:50.938Z,20.75
2023-02-02T18:28:22.427Z,23.50
2023-02-02T18:30:53.861Z,20.25
2023-02-02T18:33:24.993Z,24.75
2023-02-02T18:35:57.360Z,19.25
2023-02-02T18:38:32.672Z,18.25
2023-02-02T18:41:03.152Z,18.75
2023-02-02T18:43:33.761Z,17.50
2023-02-02T18:46:07.000Z,25.00
2023-02-02T18:48:38.536Z,20.75
2023-02-02T18:51:13.932Z,20.75
2023-02-02T18:53:46.682Z,17.25
2023-02-02T18:56:18.516Z,35.50
2023-02-02T18:58:49.009Z,17.50
2023-02-02T19:01:21.995Z,17.75
2023-02-02T19:03:54.398Z,18.00
2023-02-02T19:06:54.168Z,15.75
2023-02-02T19:09:29.593Z,22.25
2023-02-02T19:12:02.569Z,19.25
2023-02-02T19:17:28.256Z,17.75
2023-02-02T19:20:26.409Z,15.50
2023-02-02T19:23:08.695Z,22.00
2023-02-02T19:28:31.620Z,15.50
2023-02-02T19:31:02.996Z,18.75
2023-02-02T19:33:44.911Z,19.25
2023-02-02T20:21:06.599Z,16.00
2023-02-02T20:30:29.918Z,13.75
2023-02-02T20:38:52.025Z,17.00
2023-02-02T20:41:32.003Z,2.00
2023-02-02T20:47:25.827Z,17.50
2023-02-02T21:15:12.449Z,14.25
2023-02-02T21:16:44.862Z,21.00
2023-02-02T21:25:38.691Z,22.25
2023-02-02T21:28:22.417Z,21.50
2023-02-02T21:30:45.340Z,22.25
2023-02-02T21:33:20.666Z,25.50
2023-02-02T21:36:09.173Z,23.50
2023-02-02T21:38:34.773Z,31.75
2023-02-02T21:41:08.529Z,28.00
2023-02-02T21:43:39.902Z,22.50
2023-02-02T21:46:28.101Z,28.00
2023-02-02T21:49:03.331Z,24.50
2023-02-02T21:51:38.144Z,38.00
2023-02-02T21:54:26.377Z,34.00
2023-02-02T21:56:57.485Z,30.00
2023-02-02T21:59:36.527Z,25.25
2023-02-02T22:02:44.915Z,23.25
2023-02-02T22:05:20.942Z,25.25
2023-02-02T22:07:56.551Z,27.75
2023-02-02T22:10:49.587Z,22.75
2023-02-02T22:13:24.981Z,24.50
2023-02-02T22:16:03.957Z,18.25
2023-02-02T22:18:36.690Z,24.00
2023-02-02T22:21:08.997Z,16.75
2023-02-02T22:23:40.292Z,25.00
2023-02-02T22:26:29.304Z,20.67
2023-02-02T22:29:06.085Z,17.75
2023-02-02T22:31:38.265Z,23.00
2023-02-02T22:34:08.772Z,20.25
2023-02-02T22:36:46.379Z,22.25
2023-02-02T22:39:16.807Z,19.00
2023-02-02T22:41:47.261Z,23.50
2023-02-02T22:44:20.513Z,24.25
2023-02-02T22:46:55.637Z,23.75
2023-02-02T22:49:26.093Z,20.50
2023-02-02T22:51:56.697Z,25.00
2023-02-02T22:54:30.414Z,21.00
2023-02-02T22:57:00.762Z,17.00
2023-02-02T22:59:32.266Z,18.75
2023-02-02T23:02:02.870Z,16.75
2023-02-02T23:04:33.839Z,20.75
2023-02-02T23:07:06.548Z,20.50
2023-02-02T23:09:39.786Z,29.75
2023-02-02T23:12:09.602Z,27.75
2023-02-02T23:14:39.926Z,32.50
2023-02-02T23:17:10.354Z,40.25
2023-02-02T23:22:57.220Z,41.00
2023-02-02T23:25:32.376Z,41.00
2023-02-02T23:28:05.566Z,40.25
2023-02-02T23:30:36.602Z,42.50
2023-02-02T23:33:06.993Z,40.25
2023-02-02T23:35:37.915Z,50.75
2023-02-02T23:38:08.260Z,53.00
2023-02-02T23:40:39.011Z,47.00
2023-02-02T23:43:10.185Z,31.75
2023-02-02T23:45:46.867Z,41.50
2023-02-02T23:48:17.244Z,45.00
2023-02-02T23:50:47.802Z,47.00
2023-02-02T23:53:18.238Z,41.25
2023-02-02T23:55:49.516Z,41.50
2023-02-02T23:58:20.307Z,45.75
